首页
METAR-TAF:

METAR-TAF

机场 :

埃夫勒, 法国

纬度: 49-01N, 经度: 001-13E, 海拔: 141米

当前天气观测

该预报发布于30分钟前的20:30 UTC
风速9节,风向西
温度 12°C
湿度 58%
气压 1006 hPa
能见度10公里或以上
1500米以下无云,无积雨云

METAR: LFOE 062030Z AUTO 26009KT CAVOK 12/04 Q1006 NOSIG

时间: 23:00 (21:00 UTC)

预报

该预报发布于37分钟前的20:23 UTC
预报有效从06日的 21点(UTC)到 07日的 21点(UTC)
风速12节,风向西
能见度10公里或以上
1500米以下无云,无积雨云
几率 40% :
短暂存在
从 07日的 00点(UTC)到 07日的 07点(UTC)
能見度: 4000
多云层高于3000英尺, 塔状积云.
阵雨
成为
从 07日的 04点(UTC)到 07日的 06点(UTC)
多云层高于1700英尺
短暂存在
从 07日的 09点(UTC)到 07日的 16点(UTC)
能見度: 4000
多云层高于4000英尺, 塔状积云.
阵雨
成为
从 07日的 16点(UTC)到 07日的 18点(UTC)
风速10节,风向西北

TAF: LFOE 062023Z 0621/0721 26012KT CAVOK PROB40 TEMPO 0700/0707 4000 SHRA BKN030TCU BECMG 0704/0706 BKN017 TEMPO 0709/0716 4000 SHRA BKN040TCU BECMG 0716/0718 31010KT

超过4000个机场的气象观测和天气预报(METAR&TAF报告)。

可查询的气象台以黄色和红色小点在地图上表示。

将鼠标移到小点上方,可查看气象台名称。

然后点击查看天气观测和预报。

如需切换地图:点击带黑十字的绿色按钮放大地图;点击带横线的绿色按钮缩小地图;或者点击绿色箭头查看邻近地区的地图。


METAR-TAF: